Accueil
METAR-TAF:

METAR-TAF

Aéroports :

Aéroport Al Hoceima - Cherif-Al-Idrissi

Al Hoceima, Maroc

latitude: 35-11N, longitude: 003-51W, altitude: 27 m

Observation

Le bulletin a été fait il y a 20 minutes, à 08:00 UTC
Vent 4 kt de sud/sud-est
Température 12°C
Humidité 76%
Pression 1028 hPa
Visibilité 10 km ou plus
pas de nuages en-dessous de 1500 mètres et pas de cumulonimbus.

METAR: GMTA 170800Z 16004KT CAVOK 12/08 Q1028 NOSIG

Heure: 08:20 (08:20 UTC)

Prévision

Le bulletin a été fait il y a 3 heures et 20 minutes, à 05:00 UTC
Prévision valable du 17 à 06 UTC au 18 à 12 UTC
Vent 5 kt de sud
Visibilité 10 km ou plus
pas de nuages en-dessous de 1500 mètres et pas de cumulonimbus.
Probabilité 30%
du 17 à 22 UTC au 18 à 06 UTC
Vent 1 kt de direction variable
Visibilité: 3000 m
Nuages épars à une hauteur de 800 ft
brume

TAF: GMTA 170500Z 1706/1812 18005KT CAVOK PROB30 1722/1806 VRB01KT 3000 BR SCT008

Observations et prévisions météorologiques de plus de 4000 aéroports (messages METAR et TAF).

Les stations disponibles sont représentées par des disques jaunes et rouges sur la carte.

Passer la souris dessus pour voir le nom de la station.

Cliquer dessus pour voir les observations et prévisions météorologiques.

Pour changer de carte: cliquez sur les boutons verts avec une croix noire pour zoomer, sur le bouton vert avec un tiret pour effectuer un zoom arrière, ou sur les flèches vertes pour les cartes adjacentes.


METAR-TAF: